Time;durP1;ratioP1;P1;durP2;ratioP2;P2;SDS_P1;SDS_P2;PMS_P1;PMS_P2;Temp;Humidity;BMP_temperature;BMP_pressure;BME280_temperature;BME280_humidity;BME280_pressure;Samples;Min_cycle;Max_cycle;Signal;HPM_P1;HPM_P2
2021/06/05 00:00:52;;;;;;;7.55;3.92;;;;;;;22.93;42.21;100071.01;1749230;80;21078;-70
2021/06/05 00:03:18;;;;;;;7.00;3.67;;;;;;;22.90;42.29;100063.35;1817680;77;21581;-71
2021/06/05 00:05:56;;;;;;;10.65;4.42;;;;;;;22.87;42.41;100062.50;1836830;77;20978;-70
2021/06/05 00:08:24;;;;;;;7.58;3.95;;;;;;;22.85;42.50;100061.92;1845972;77;21148;-70
2021/06/05 00:10:57;;;;;;;9.18;3.67;;;;;;;22.83;42.61;100057.79;1786074;79;21017;-71
2021/06/05 00:13:32;;;;;;;5.85;3.35;;;;;;;22.79;42.70;100053.38;1791411;79;22092;-70
2021/06/05 00:16:00;;;;;;;8.28;4.10;;;;;;;22.77;42.81;100051.45;1807068;79;21010;-70
2021/06/05 00:18:28;;;;;;;6.62;4.20;;;;;;;22.74;42.91;100045.98;1789618;79;21494;-71
2021/06/05 00:20:57;;;;;;;6.60;3.75;;;;;;;22.72;42.99;100051.36;1781271;79;21069;-71
2021/06/05 00:23:24;;;;;;;8.38;3.98;;;;;;;22.69;43.06;100047.77;1763075;79;21003;-73
2021/06/05 00:25:53;;;;;;;8.08;3.60;;;;;;;22.68;43.14;100046.14;1777130;80;21076;-71
2021/06/05 00:28:20;;;;;;;8.25;4.40;;;;;;;22.65;43.30;100049.32;1775396;80;21053;-71
2021/06/05 00:30:47;;;;;;;9.00;4.20;;;;;;;22.61;43.37;100043.55;1832615;77;21497;-69
2021/06/05 00:33:14;;;;;;;8.95;4.10;;;;;;;22.59;43.45;100049.75;1829557;77;21263;-70
2021/06/05 00:35:41;;;;;;;6.08;3.95;;;;;;;22.57;43.53;100047.81;1833977;77;20998;-69
2021/06/05 00:38:07;;;;;;;7.62;3.95;;;;;;;22.54;43.60;100048.28;1833562;77;21477;-70
2021/06/05 00:40:39;;;;;;;8.58;4.25;;;;;;;22.52;43.69;100045.83;1826088;77;21056;-69
2021/06/05 00:43:07;;;;;;;7.63;4.47;;;;;;;22.50;43.75;100052.53;1829440;77;21014;-70
2021/06/05 00:45:38;;;;;;;8.08;3.98;;;;;;;22.49;43.84;100057.67;1839136;77;21458;-70
2021/06/05 00:48:05;;;;;;;8.05;4.25;;;;;;;22.46;43.93;100048.66;1835797;77;21018;-70
2021/06/05 00:50:33;;;;;;;8.40;4.53;;;;;;;22.44;43.96;100044.83;1827960;77;21006;-70
2021/06/05 00:53:00;;;;;;;6.10;3.70;;;;;;;22.42;44.03;100053.72;1758128;80;21038;-70
2021/06/05 00:55:29;;;;;;;8.63;4.30;;;;;;;22.39;44.09;100055.57;1754929;80;21495;-70
2021/06/05 00:57:56;;;;;;;11.28;4.12;;;;;;;22.37;44.19;100053.09;1729751;80;21154;-71
2021/06/05 01:00:43;;;;;;;10.75;4.30;;;;;;;22.35;44.23;100053.05;1769965;79;21052;-71
2021/06/05 01:03:11;;;;;;;6.05;3.75;;;;;;;22.32;44.31;100055.69;1769218;79;21031;-71
2021/06/05 01:05:38;;;;;;;5.20;3.90;;;;;;;22.30;44.38;100050.23;1754076;80;21563;-69
2021/06/05 01:08:35;;;;;;;7.00;4.22;;;;;;;22.27;44.45;100056.10;1770352;80;21043;-71
2021/06/05 01:11:38;;;;;;;7.75;3.85;;;;;;;22.24;44.52;100051.97;1797568;79;21033;-71
2021/06/05 01:14:33;;;;;;;5.53;4.17;;;;;;;22.21;44.63;100052.97;1776237;79;21026;-72
2021/06/05 01:17:11;;;;;;;7.72;4.55;;;;;;;22.15;44.77;100049.33;1759043;79;21061;-70
2021/06/05 01:20:03;;;;;;;7.62;4.17;;;;;;;22.10;44.83;100050.05;1839264;77;21025;-70
2021/06/05 01:23:12;;;;;;;10.90;4.17;;;;;;;22.08;44.93;100056.22;1833245;77;21516;-69
2021/06/05 01:25:53;;;;;;;6.28;4.22;;;;;;;22.06;45.01;100054.80;1834955;77;21121;-69
2021/06/05 01:28:25;;;;;;;7.00;3.83;;;;;;;22.02;45.13;100050.92;1836292;77;21100;-70
2021/06/05 01:30:56;;;;;;;7.17;4.30;;;;;;;21.99;45.21;100048.98;1823871;77;21002;-70
2021/06/05 01:33:26;;;;;;;6.15;4.22;;;;;;;21.98;45.25;100046.50;1837927;77;21123;-70
2021/06/05 01:35:54;;;;;;;7.12;3.87;;;;;;;21.98;45.27;100042.45;1814812;77;21570;-69
2021/06/05 01:38:26;;;;;;;7.80;4.62;;;;;;;21.96;45.30;100040.51;1814236;77;21130;-69
2021/06/05 01:40:53;;;;;;;6.45;4.17;;;;;;;21.96;45.36;100051.33;1839346;77;21068;-70
2021/06/05 01:43:23;;;;;;;7.67;4.55;;;;;;;21.94;45.43;100038.58;1810899;77;20998;-72
2021/06/05 01:45:50;;;;;;;7.25;4.10;;;;;;;21.93;45.50;100040.47;1815448;77;21033;-70
2021/06/05 01:48:18;;;;;;;5.12;4.12;;;;;;;21.93;45.50;100043.17;1847610;77;21528;-70
2021/06/05 01:50:47;;;;;;;7.30;4.10;;;;;;;21.92;45.57;100039.34;1830091;77;21125;-71
2021/06/05 01:53:32;;;;;;;6.90;4.58;;;;;;;21.91;45.62;100046.64;1835874;77;21049;-71
2021/06/05 01:56:14;;;;;;;5.95;4.30;;;;;;;21.91;45.64;100041.23;1847352;77;21010;-70
2021/06/05 01:58:42;;;;;;;7.92;4.58;;;;;;;21.89;45.64;100041.18;1785338;79;21037;-71
2021/06/05 02:01:12;;;;;;;8.75;4.50;;;;;;;21.85;45.68;100043.53;1776455;79;21015;-71
2021/06/05 02:03:41;;;;;;;5.10;3.83;;;;;;;21.85;45.72;100045.42;1787377;79;22042;-72
2021/06/05 02:06:28;;;;;;;7.90;4.08;;;;;;;21.83;45.74;100043.45;1802044;79;21084;-71
2021/06/05 02:08:56;;;;;;;7.45;3.98;;;;;;;21.82;45.80;100044.52;1774810;79;21031;-71
2021/06/05 02:11:26;;;;;;;6.53;3.92;;;;;;;21.79;45.83;100037.17;1744806;81;21098;-72
2021/06/05 02:14:02;;;;;;;8.25;4.42;;;;;;;21.78;45.87;100038.22;1772007;79;21073;-70
2021/06/05 02:16:41;;;;;;;5.33;3.60;;;;;;;21.77;45.91;100035.23;1759831;80;21054;-70
2021/06/05 02:19:19;;;;;;;7.05;4.17;;;;;;;21.75;45.94;100029.75;1764943;79;21498;-70
2021/06/05 02:21:48;;;;;;;6.33;4.40;;;;;;;21.74;45.99;100032.98;1805896;79;21061;-71
2021/06/05 02:24:26;;;;;;;9.75;3.80;;;;;;;21.74;46.08;100031.64;1771030;80;21068;-70
2021/06/05 02:26:53;;;;;;;7.42;3.87;;;;;;;21.72;46.13;100031.05;1746154;80;21101;-70
2021/06/05 02:29:23;;;;;;;6.70;3.80;;;;;;;21.72;46.23;100032.41;1820320;77;21972;-69
2021/06/05 02:31:50;;;;;;;6.08;3.80;;;;;;;21.71;46.26;100032.12;1762924;80;21513;-70
2021/06/05 02:34:23;;;;;;;5.10;3.80;;;;;;;21.70;46.31;100029.11;1764342;79;21071;-71
2021/06/05 02:36:50;;;;;;;6.08;3.95;;;;;;;21.69;46.37;100028.83;1796827;79;21533;-70
2021/06/05 02:39:18;;;;;;;9.40;4.60;;;;;;;21.68;46.40;100021.77;1763500;79;21025;-70
2021/06/05 02:41:49;;;;;;;5.95;4.12;;;;;;;21.67;46.44;100030.11;1775789;80;21123;-70
2021/06/05 02:44:17;;;;;;;7.50;4.42;;;;;;;21.66;46.46;100031.18;1773608;79;20998;-69
2021/06/05 02:46:45;;;;;;;7.15;4.67;;;;;;;21.64;46.45;100029.23;1816718;77;21078;-71
2021/06/05 02:49:21;;;;;;;9.75;4.30;;;;;;;21.63;46.43;100025.69;1762724;80;21045;-70
2021/06/05 02:51:56;;;;;;;13.78;4.90;;;;;;;21.62;46.41;100031.36;1769637;80;21025;-71
2021/06/05 02:54:24;;;;;;;12.93;4.65;;;;;;;21.60;46.44;100029.70;1773782;79;21087;-71
2021/06/05 02:56:53;;;;;;;10.45;5.10;;;;;;;21.58;46.44;100028.30;1780541;79;21065;-70
2021/06/05 02:59:21;;;;;;;10.88;4.62;;;;;;;21.55;46.45;100025.51;1777081;79;21011;-70
2021/06/05 03:01:50;;;;;;;8.00;5.00;;;;;;;21.56;46.39;100030.41;1785452;79;21550;-72
2021/06/05 03:04:20;;;;;;;11.08;5.30;;;;;;;21.54;46.38;100032.52;1778429;79;21094;-71
2021/06/05 03:06:48;;;;;;;11.08;5.20;;;;;;;21.54;46.37;100028.47;1789993;79;21053;-71
2021/06/05 03:09:18;;;;;;;8.50;5.47;;;;;;;21.52;46.33;100034.10;1831262;77;22196;-71
2021/06/05 03:11:47;;;;;;;7.87;5.05;;;;;;;21.51;46.29;100031.09;1835099;77;21006;-71
2021/06/05 03:14:15;;;;;;;10.00;5.75;;;;;;;21.51;46.27;100031.62;1831371;77;21074;-72
2021/06/05 03:16:43;;;;;;;12.35;5.08;;;;;;;21.50;46.22;100031.31;1840564;77;21085;-71
2021/06/05 03:19:10;;;;;;;8.00;4.97;;;;;;;21.50;46.19;100028.61;1833918;77;21115;-71
2021/06/05 03:21:37;;;;;;;9.95;5.17;;;;;;;21.52;46.08;100040.05;1831252;77;21057;-71
2021/06/05 03:24:18;;;;;;;7.28;4.83;;;;;;;21.51;45.98;100032.44;1838201;77;21046;-70
2021/06/05 03:26:46;;;;;;;6.83;4.35;;;;;;;21.51;45.95;100035.14;1822638;77;21041;-70
2021/06/05 03:31:21;;;;;;;12.45;4.60;;;;;;;21.57;45.96;100032.85;1877744;75;22623;-72
2021/06/05 03:33:49;;;;;;;8.93;4.80;;;;;;;21.48;45.94;100026.67;1824564;77;21107;-71
2021/06/05 03:36:19;;;;;;;7.95;5.25;;;;;;;21.50;45.95;100025.91;1845577;77;21061;-71
2021/06/05 03:38:46;;;;;;;6.55;4.92;;;;;;;21.52;45.96;100026.53;1837320;77;21103;-71
2021/06/05 03:41:14;;;;;;;6.97;4.45;;;;;;;21.53;45.96;100033.03;1839639;77;20929;-70
2021/06/05 03:43:43;;;;;;;6.22;4.50;;;;;;;21.55;45.92;100030.09;1844418;77;20957;-72
2021/06/05 03:46:10;;;;;;;6.70;5.00;;;;;;;21.56;45.94;100031.76;1826888;77;20935;-71
2021/06/05 03:48:38;;;;;;;9.33;4.45;;;;;;;21.57;45.96;100030.15;1830724;77;21619;-71
2021/06/05 03:51:08;;;;;;;6.30;4.40;;;;;;;21.59;45.94;100028.57;1857235;77;20942;-71
2021/06/05 03:53:36;;;;;;;6.00;4.37;;;;;;;21.61;45.90;100026.45;1847270;77;21595;-71
2021/06/05 03:56:04;;;;;;;9.85;4.65;;;;;;;21.62;45.90;100020.00;1850901;77;20997;-71
2021/06/05 03:58:38;;;;;;;7.53;4.78;;;;;;;21.64;45.76;100023.83;1856398;77;21059;-69
2021/06/05 04:01:11;;;;;;;4.83;4.17;;;;;;;21.67;45.73;100025.55;1859741;77;21765;-70
2021/06/05 04:03:39;;;;;;;6.35;4.10;;;;;;;21.68;45.65;100027.71;1784651;78;21040;-71
2021/06/05 04:06:07;;;;;;;6.62;4.17;;;;;;;21.71;45.62;100033.48;1818468;78;21275;-71
2021/06/05 04:08:34;;;;;;;4.97;3.72;;;;;;;21.72;45.54;100021.59;1787530;78;21056;-72
2021/06/05 04:11:02;;;;;;;8.60;4.20;;;;;;;21.76;45.52;100020.59;1792118;78;21091;-70
2021/06/05 04:13:30;;;;;;;6.67;4.10;;;;;;;21.78;45.50;100021.18;1798706;78;22440;-70
2021/06/05 04:15:57;;;;;;;6.80;4.45;;;;;;;21.80;45.56;100025.28;1812253;78;21016;-71
2021/06/05 04:18:29;;;;;;;6.50;4.30;;;;;;;21.84;45.52;100024.83;1778422;78;21002;-73
2021/06/05 04:20:56;;;;;;;5.30;3.98;;;;;;;21.86;45.45;100023.52;1799637;78;21006;-72
2021/06/05 04:23:23;;;;;;;9.03;3.95;;;;;;;21.90;45.50;100019.28;1800504;78;21262;-72
2021/06/05 04:25:50;;;;;;;7.90;3.95;;;;;;;21.93;45.54;100020.72;1808331;78;21140;-71
2021/06/05 04:28:18;;;;;;;6.95;4.37;;;;;;;21.96;45.49;100014.81;1806730;78;21111;-72
2021/06/05 04:30:44;;;;;;;7.08;4.20;;;;;;;22.01;45.51;100020.34;1779822;78;21072;-72
2021/06/05 04:33:13;;;;;;;8.68;3.52;;;;;;;22.06;45.54;100020.98;1792813;78;21069;-72
2021/06/05 04:35:42;;;;;;;5.33;3.80;;;;;;;22.10;45.59;100018.12;1816835;78;22046;-72
2021/06/05 04:38:09;;;;;;;6.45;3.75;;;;;;;22.16;45.69;100019.33;1825103;78;21130;-72
2021/06/05 04:40:36;;;;;;;5.97;3.77;;;;;;;22.24;45.71;100017.33;1812715;78;21079;-72
2021/06/05 04:43:03;;;;;;;5.58;3.45;;;;;;;22.29;45.71;100014.73;1784959;79;21112;-72
2021/06/05 04:45:30;;;;;;;11.25;4.10;;;;;;;22.34;45.71;100017.02;1786789;79;21046;-71
2021/06/05 04:47:57;;;;;;;4.45;3.50;;;;;;;22.38;45.75;100005.19;1782029;79;21056;-71
2021/06/05 04:50:27;;;;;;;8.15;3.50;;;;;;;22.44;45.66;100002.06;1772492;79;21100;-70
2021/06/05 04:52:54;;;;;;;5.45;3.70;;;;;;;22.50;45.74;100002.45;1792408;79;21009;-72
2021/06/05 04:55:20;;;;;;;4.40;3.40;;;;;;;22.55;45.67;100000.67;1800197;79;21000;-71
2021/06/05 04:57:47;;;;;;;5.50;3.50;;;;;;;22.60;45.51;99999.12;1800702;79;21536;-70
2021/06/05 05:00:17;;;;;;;6.53;3.12;;;;;;;22.64;45.57;99998.41;1816449;78;21037;-69
2021/06/05 05:02:43;;;;;;;5.55;3.25;;;;;;;22.68;45.38;99998.22;1803961;78;21065;-69
2021/06/05 05:05:12;;;;;;;5.87;3.55;;;;;;;22.71;45.19;99998.25;1789148;79;21021;-70
2021/06/05 05:07:38;;;;;;;6.90;3.40;;;;;;;22.75;45.18;100000.26;1777164;79;21013;-69
2021/06/05 05:10:06;;;;;;;3.62;3.33;;;;;;;22.78;45.04;99993.52;1793452;79;21112;-70
2021/06/05 05:12:33;;;;;;;3.58;3.08;;;;;;;22.82;45.03;99994.67;1775191;79;21326;-70
2021/06/05 05:14:59;;;;;;;5.20;3.27;;;;;;;22.86;44.88;99992.31;1787598;79;21066;-71
2021/06/05 05:17:26;;;;;;;6.05;3.30;;;;;;;22.90;44.86;99996.98;1789983;79;21028;-72
2021/06/05 05:19:52;;;;;;;5.45;2.83;;;;;;;22.93;44.59;99991.09;1784101;79;21517;-71
2021/06/05 05:22:19;;;;;;;5.05;2.92;;;;;;;22.97;44.35;100003.63;1786140;79;21060;-69
2021/06/05 05:24:45;;;;;;;4.95;3.20;;;;;;;23.00;44.12;99993.64;1776970;79;22473;-71
2021/06/05 05:27:12;;;;;;;3.55;3.02;;;;;;;23.03;43.94;99992.38;1781542;79;21133;-70
2021/06/05 05:29:40;;;;;;;4.40;3.27;;;;;;;23.07;43.73;99984.05;1798506;79;21513;-69
2021/06/05 05:32:08;;;;;;;6.50;3.10;;;;;;;23.09;43.66;99982.72;1773848;79;21108;-71
2021/06/05 05:34:35;;;;;;;6.50;3.27;;;;;;;23.13;43.54;99981.16;1775169;79;21056;-69
2021/06/05 05:37:02;;;;;;;2.70;2.50;;;;;;;23.17;43.49;99978.79;1768268;80;21040;-69
2021/06/05 05:39:29;;;;;;;3.87;3.10;;;;;;;23.20;43.27;99979.67;1771466;80;21844;-69
2021/06/05 05:41:55;;;;;;;4.33;2.83;;;;;;;23.22;43.19;99976.17;1771871;80;21105;-70
2021/06/05 05:44:22;;;;;;;5.97;2.75;;;;;;;23.25;42.97;99974.31;1779606;79;21017;-70
2021/06/05 05:46:49;;;;;;;5.05;2.98;;;;;;;23.28;42.75;99971.66;1778897;80;21105;-70
2021/06/05 05:49:16;;;;;;;6.20;3.05;;;;;;;23.30;42.71;99970.87;1778871;79;21040;-69
2021/06/05 05:51:44;;;;;;;6.55;2.80;;;;;;;23.33;42.57;99971.73;1766087;80;21152;-69
2021/06/05 05:54:11;;;;;;;3.20;2.50;;;;;;;23.36;42.53;99967.18;1769186;79;21032;-69
2021/06/05 05:56:38;;;;;;;3.20;2.90;;;;;;;23.39;42.45;99966.67;1760939;78;21090;-69
2021/06/05 05:59:04;;;;;;;4.55;2.70;;;;;;;23.42;42.51;99969.44;1764519;79;21213;-69
2021/06/05 06:01:31;;;;;;;4.15;2.72;;;;;;;23.46;42.46;99971.94;1763783;79;21516;-69
2021/06/05 06:03:58;;;;;;;4.83;3.15;;;;;;;23.48;42.48;99963.83;1744582;79;22368;-69
2021/06/05 06:06:26;;;;;;;3.22;2.50;;;;;;;23.51;42.42;99966.60;1780994;79;21037;-69
2021/06/05 06:08:54;;;;;;;5.10;2.67;;;;;;;23.52;42.32;99960.91;1766087;79;21061;-70
2021/06/05 06:11:22;;;;;;;4.60;2.45;;;;;;;23.55;42.21;99959.61;1788072;79;21062;-69
2021/06/05 06:13:49;;;;;;;5.72;2.80;;;;;;;23.58;42.12;99956.38;1777314;79;21620;-70
2021/06/05 06:16:16;;;;;;;5.33;2.72;;;;;;;23.61;42.00;99953.73;1769024;79;21196;-69
2021/06/05 06:18:44;;;;;;;2.92;2.33;;;;;;;23.62;41.84;99956.17;1775846;79;21057;-69
2021/06/05 06:21:12;;;;;;;3.75;2.50;;;;;;;23.66;41.76;99949.72;1782387;79;21489;-69
2021/06/05 06:23:40;;;;;;;5.12;2.35;;;;;;;23.68;41.81;99945.70;1773459;79;21651;-69
2021/06/05 06:26:11;;;;;;;4.47;2.72;;;;;;;23.71;41.56;99949.25;1781080;79;21036;-69
2021/06/05 06:28:39;;;;;;;5.25;2.72;;;;;;;23.73;41.34;99943.05;1773506;79;21080;-70
2021/06/05 06:31:06;;;;;;;4.37;2.15;;;;;;;23.75;41.05;99936.83;1784458;79;21032;-70
2021/06/05 06:33:33;;;;;;;4.10;2.87;;;;;;;23.80;41.04;99938.00;1795638;79;21063;-69
2021/06/05 06:35:59;;;;;;;2.67;2.22;;;;;;;23.81;40.83;99929.62;1793270;79;21610;-69
2021/06/05 06:38:30;;;;;;;5.05;2.72;;;;;;;23.84;40.71;99932.38;1793697;79;21057;-70
2021/06/05 06:40:58;;;;;;;3.08;2.42;;;;;;;23.85;40.61;99937.53;1774023;79;21132;-70
2021/06/05 06:43:26;;;;;;;2.75;2.27;;;;;;;23.89;40.55;99936.50;1797936;79;21052;-71
2021/06/05 06:46:09;;;;;;;4.45;2.15;;;;;;;23.90;40.28;99929.47;1798546;79;21651;-70
2021/06/05 06:48:36;;;;;;;2.62;2.15;;;;;;;23.93;40.25;99928.14;1795155;79;21010;-70
2021/06/05 06:51:04;;;;;;;4.25;2.62;;;;;;;23.94;40.18;99927.89;1796965;79;21083;-69
2021/06/05 06:53:35;;;;;;;3.37;2.42;;;;;;;23.97;40.05;99929.81;1785569;79;21135;-70
2021/06/05 06:56:00;;;;;;;4.30;2.15;;;;;;;23.99;39.80;99930.38;1803130;79;21095;-70
2021/06/05 06:58:29;;;;;;;2.80;2.10;;;;;;;24.02;39.77;99932.61;1781717;79;21003;-70
2021/06/05 07:00:55;;;;;;;4.55;2.40;;;;;;;24.03;39.71;99928.28;1798593;79;21008;-69
2021/06/05 07:03:22;;;;;;;4.75;2.58;;;;;;;24.05;39.63;99922.07;1803556;79;21068;-70
2021/06/05 07:05:48;;;;;;;2.42;2.22;;;;;;;24.07;39.62;99917.20;1782816;79;21553;-69
2021/06/05 07:08:21;;;;;;;4.55;2.37;;;;;;;24.10;39.67;99922.11;1803155;79;21064;-69
2021/06/05 07:10:50;;;;;;;;;;;;;;;24.13;39.81;99918.91;1785543;79;21041;-70
2021/06/05 07:13:17;;;;;;;2.65;2.12;;;;;;;24.15;39.75;99915.94;1796335;79;20481;-70
2021/06/05 07:15:43;;;;;;;3.87;2.42;;;;;;;24.10;39.77;99912.61;1803181;79;21079;-70
2021/06/05 07:18:12;;;;;;;3.60;2.35;;;;;;;24.11;39.63;99911.55;1794930;79;21056;-70
2021/06/05 07:20:40;;;;;;;2.37;2.10;;;;;;;24.18;39.64;99914.06;1797984;79;21476;-69
2021/06/05 07:23:07;;;;;;;3.20;2.22;;;;;;;24.21;39.59;99914.11;1789153;79;21044;-70
2021/06/05 07:25:34;;;;;;;2.90;2.05;;;;;;;24.23;39.53;99914.12;1775757;79;21084;-70
2021/06/05 07:28:14;;;;;;;2.27;2.08;;;;;;;24.26;39.49;99911.44;1781632;79;21029;-70
2021/06/05 07:30:41;;;;;;;2.50;1.95;;;;;;;24.30;39.44;99913.95;1784031;79;22337;-70
2021/06/05 07:33:07;;;;;;;2.45;2.08;;;;;;;24.33;39.52;99910.70;1767131;79;21067;-69
2021/06/05 07:35:35;;;;;;;4.03;2.00;;;;;;;24.36;39.56;99896.63;1772957;79;21029;-70
2021/06/05 07:38:01;;;;;;;3.40;1.98;;;;;;;24.39;39.56;99893.39;1786587;79;21072;-71
2021/06/05 07:40:28;;;;;;;2.40;1.90;;;;;;;24.43;39.65;99886.37;1767746;79;21631;-69
2021/06/05 07:42:56;;;;;;;5.60;3.02;;;;;;;24.47;39.76;99888.03;1772639;79;21591;-67
2021/06/05 07:45:22;;;;;;;7.22;3.05;;;;;;;24.51;43.06;99887.83;1791801;79;21025;-66
2021/06/05 07:47:50;;;;;;;8.68;3.02;;;;;;;24.55;45.57;99880.84;1795124;79;21052;-66
2021/06/05 07:50:17;;;;;;;6.87;2.80;;;;;;;24.60;46.01;99869.19;1767101;79;21017;-68
2021/06/05 07:52:43;;;;;;;7.78;3.08;;;;;;;24.65;45.60;99878.75;1783001;79;21036;-68
2021/06/05 07:55:10;;;;;;;7.35;2.42;;;;;;;24.71;45.51;99877.72;1790491;79;21546;-68
2021/06/05 07:57:38;;;;;;;5.83;2.60;;;;;;;24.76;45.44;99870.95;1781410;79;21126;-68
2021/06/05 08:00:09;;;;;;;3.72;2.65;;;;;;;24.83;45.27;99869.39;1765884;79;21041;-67
2021/06/05 08:02:37;;;;;;;;;;;;;;;24.88;44.46;99867.53;1789373;79;21080;-67
2021/06/05 08:05:05;;;;;;;4.67;2.60;;;;;;;24.95;43.94;99870.02;1799651;79;20167;-68
2021/06/05 08:07:33;;;;;;;3.47;2.98;;;;;;;24.93;44.02;99854.52;1793132;79;21041;-63
2021/06/05 08:10:00;;;;;;;4.33;2.83;;;;;;;25.00;43.92;99862.46;1773797;79;20990;-63
2021/06/05 08:12:26;;;;;;;4.22;2.52;;;;;;;25.08;43.40;99856.53;1788458;79;20999;-63
2021/06/05 08:14:53;;;;;;;4.40;2.85;;;;;;;25.14;42.60;99862.28;1787560;79;21080;-64
2021/06/05 08:17:19;;;;;;;6.50;2.67;;;;;;;25.20;42.00;99862.59;1786348;79;21001;-63
2021/06/05 08:19:46;;;;;;;4.30;2.70;;;;;;;25.25;41.63;99854.50;1788591;79;21214;-65
2021/06/05 08:22:14;;;;;;;3.30;2.87;;;;;;;25.30;40.97;99850.47;1785079;79;21085;-62
2021/06/05 08:24:41;;;;;;;2.67;2.42;;;;;;;25.37;40.40;99854.30;1787795;79;21013;-63
2021/06/05 08:27:08;;;;;;;6.33;2.98;;;;;;;25.42;39.85;99850.77;1784837;79;21059;-67
2021/06/05 08:29:34;;;;;;;4.40;2.52;;;;;;;25.47;40.20;99846.19;1785036;79;21059;-65
2021/06/05 08:32:01;;;;;;;5.40;2.87;;;;;;;25.53;38.81;99846.22;1785828;79;21977;-66
2021/06/05 08:34:29;;;;;;;4.60;2.42;;;;;;;25.56;38.00;99838.91;1779944;79;21669;-61
2021/06/05 08:36:55;;;;;;;3.30;2.00;;;;;;;25.57;37.31;99835.89;1762863;80;21067;-66
2021/06/05 08:39:22;;;;;;;6.30;2.10;;;;;;;25.61;38.03;99838.91;1772668;79;21496;-68
2021/06/05 08:41:52;;;;;;;4.50;2.40;;;;;;;25.62;36.63;99833.21;1782963;80;21069;-67
2021/06/05 08:44:34;;;;;;;2.55;2.33;;;;;;;25.63;36.08;99832.14;1773818;79;21048;-68
2021/06/05 08:47:17;;;;;;;3.10;2.30;;;;;;;25.66;36.84;99834.86;1779864;79;21513;-65
2021/06/05 08:49:45;;;;;;;3.85;2.35;;;;;;;25.68;36.50;99836.22;1767333;79;21006;-70
2021/06/05 08:52:53;;;;;;;7.30;2.37;;;;;;;25.74;36.41;99826.73;1780213;79;21067;-69
2021/06/05 08:55:39;;;;;;;5.58;2.70;;;;;;;25.79;35.48;99832.20;1761884;80;21499;-69
2021/06/05 08:58:27;;;;;;;3.62;2.52;;;;;;;25.84;35.38;99830.84;1770805;80;21149;-70
2021/06/05 09:00:49;;;;;;;3.37;2.30;;;;;;;25.89;35.46;99825.42;1766357;80;21000;-69
2021/06/05 09:03:20;;;;;;;4.00;1.90;;;;;;;25.92;34.81;99818.09;1776370;80;21458;-67
2021/06/05 09:06:00;;;;;;;4.92;2.55;;;;;;;25.92;35.08;99823.54;1770770;80;21019;-71
2021/06/05 09:08:29;;;;;;;4.15;2.20;;;;;;;25.95;35.99;99822.20;1772487;79;21060;-70
2021/06/05 09:10:59;;;;;;;3.98;2.25;;;;;;;25.99;35.70;99820.03;1765414;80;21006;-75
2021/06/05 09:13:25;;;;;;;2.12;1.92;;;;;;;26.02;35.32;99820.86;1754687;80;21466;-78
2021/06/05 09:16:24;;;;;;;2.58;2.22;;;;;;;26.02;35.44;99821.39;1779798;79;21641;-79
2021/06/05 09:19:11;;;;;;;5.12;2.37;;;;;;;25.97;34.81;99814.04;1782356;79;21575;-80
2021/06/05 09:21:44;;;;;;;4.15;2.30;;;;;;;25.90;34.93;99827.05;1768558;79;21006;-76
2021/06/05 09:24:29;;;;;;;4.03;2.08;;;;;;;25.84;34.76;99824.03;1782088;80;21753;-78
2021/06/05 09:27:19;;;;;;;3.60;2.47;;;;;;;25.76;34.83;99825.37;1793769;79;21286;-78
2021/06/05 09:29:56;;;;;;;5.08;2.70;;;;;;;25.68;34.68;99822.62;1752859;80;21073;-77
2021/06/05 09:32:27;;;;;;;3.92;2.12;;;;;;;25.60;34.76;99819.61;1781705;79;21013;-70
2021/06/05 09:34:57;;;;;;;3.00;2.40;;;;;;;25.55;35.27;99819.03;1792641;79;21053;-70
2021/06/05 09:37:43;;;;;;;6.08;3.20;;;;;;;25.54;36.02;99807.08;1773936;79;21124;-70
2021/06/05 09:40:18;;;;;;;7.03;4.72;;;;;;;25.59;36.41;99816.05;1779182;79;21530;-70
2021/06/05 09:42:49;;;;;;;10.93;8.63;;;;;;;25.67;36.17;99811.48;1795963;79;21050;-72
2021/06/05 09:45:24;;;;;;;9.50;7.67;;;;;;;25.76;36.81;99807.69;1778575;79;21018;-73
2021/06/05 09:47:50;;;;;;;10.48;8.68;;;;;;;25.85;36.93;99803.92;1786628;80;21020;-72
2021/06/05 09:50:25;;;;;;;13.80;8.23;;;;;;;25.93;36.89;99809.41;1784604;78;21471;-73
2021/06/05 09:52:52;;;;;;;9.23;5.58;;;;;;;26.00;37.04;99807.23;1783890;78;21033;-71
2021/06/05 09:55:26;;;;;;;9.20;7.15;;;;;;;26.08;36.33;99808.89;1790601;80;21041;-71
2021/06/05 09:57:55;;;;;;;9.93;7.15;;;;;;;26.13;36.43;99804.55;1794014;79;21092;-71
2021/06/05 10:00:32;;;;;;;10.88;7.15;;;;;;;26.17;36.96;99804.27;1790725;79;21010;-72
2021/06/05 10:03:27;;;;;;;10.98;9.38;;;;;;;26.22;36.78;99809.73;1759584;80;21104;-75
2021/06/05 10:05:56;;;;;;;14.68;10.40;;;;;;;26.24;37.01;99808.92;1789391;80;21623;-66
2021/06/05 10:08:39;;;;;;;12.63;10.48;;;;;;;26.26;37.63;99802.66;1789017;79;21048;-68
2021/06/05 10:11:39;;;;;;;14.83;13.28;;;;;;;26.25;37.50;99801.02;1792633;80;21098;-68
2021/06/05 10:14:16;;;;;;;19.67;14.58;;;;;;;26.26;37.72;99801.30;1790353;79;21049;-68
2021/06/05 10:16:47;;;;;;;16.67;14.80;;;;;;;26.23;37.54;99801.83;1759281;80;21113;-67
2021/06/05 10:19:31;;;;;;;13.30;12.00;;;;;;;26.23;37.84;99804.55;1785201;79;21096;-68
2021/06/05 10:21:58;;;;;;;14.13;12.53;;;;;;;26.22;37.72;99800.21;1778229;79;21529;-67
2021/06/05 10:24:39;;;;;;;15.20;13.35;;;;;;;26.20;37.77;99796.39;1777543;79;21024;-76
2021/06/05 10:27:18;;;;;;;16.37;14.38;;;;;;;26.19;38.15;99798.02;1765287;80;21143;-73
2021/06/05 10:29:49;;;;;;;12.07;10.85;;;;;;;26.18;39.00;99800.48;1793933;79;21047;-66
2021/06/05 10:32:22;;;;;;;9.28;8.10;;;;;;;26.16;40.29;99795.84;1788769;79;21014;-74
2021/06/05 10:35:05;;;;;;;5.78;5.00;;;;;;;26.16;40.86;99802.66;1767506;80;21050;-74
2021/06/05 10:37:34;;;;;;;6.12;5.25;;;;;;;26.13;40.19;99790.38;1777109;79;21206;-73
2021/06/05 10:40:05;;;;;;;8.25;5.60;;;;;;;26.11;39.87;99791.20;1763706;79;21022;-73
2021/06/05 10:42:46;;;;;;;7.33;5.65;;;;;;;26.11;39.37;99787.66;1779339;80;21120;-74
2021/06/05 10:45:27;;;;;;;7.47;5.12;;;;;;;26.12;39.81;99787.41;1742515;79;21015;-74
2021/06/05 10:48:23;;;;;;;9.38;5.35;;;;;;;26.15;38.85;99788.76;1764019;80;21499;-75
2021/06/05 10:51:08;;;;;;;7.95;4.55;;;;;;;26.16;39.20;99781.69;1767750;79;21664;-74
2021/06/05 10:53:38;;;;;;;5.00;4.17;;;;;;;26.17;38.65;99777.86;1770724;79;21050;-70
2021/06/05 10:56:19;;;;;;;6.17;3.92;;;;;;;26.18;39.10;99781.42;1744275;81;21120;-69
2021/06/05 10:58:51;;;;;;;11.68;10.00;;;;;;;26.18;38.15;99774.61;1763910;79;21304;-73
2021/06/05 11:01:33;;;;;;;13.40;9.38;;;;;;;26.22;38.47;99768.34;1757882;79;21041;-74
2021/06/05 11:04:04;;;;;;;10.35;6.50;;;;;;;26.32;39.42;99770.26;1751988;79;21052;-76
2021/06/05 11:06:50;;;;;;;7.92;5.20;;;;;;;26.46;39.33;99768.64;1765795;79;21060;-68
2021/06/05 11:09:29;;;;;;;8.18;4.87;;;;;;;26.61;40.37;99762.38;1726991;81;21159;-79
2021/06/05 11:12:03;;;;;;;8.15;5.30;;;;;;;26.79;39.35;99766.98;1743937;79;21584;-82
2021/06/05 11:14:46;;;;;;;6.58;4.60;;;;;;;26.96;39.58;99769.41;1748006;79;21082;-84
2021/06/05 11:17:21;;;;;;;7.85;4.58;;;;;;;27.11;39.38;99770.73;1774955;79;21593;-74
2021/06/05 11:19:53;;;;;;;6.03;3.77;;;;;;;27.24;40.14;99759.80;1757045;80;21057;-75
2021/06/05 11:22:25;;;;;;;6.00;3.87;;;;;;;27.33;37.26;99756.77;1763434;79;20986;-71
2021/06/05 11:25:13;;;;;;;7.42;3.92;;;;;;;27.40;37.65;99757.85;1752568;80;21110;-70
2021/06/05 11:27:49;;;;;;;4.67;3.30;;;;;;;27.43;37.33;99751.30;1764611;79;21010;-69
2021/06/05 11:30:30;;;;;;;6.70;3.20;;;;;;;27.44;36.93;99755.64;1750643;81;21133;-68
2021/06/05 11:33:02;;;;;;;4.20;2.80;;;;;;;27.46;35.48;99758.90;1741983;80;20976;-68
2021/06/05 11:35:49;;;;;;;5.50;3.35;;;;;;;27.50;36.73;99753.70;1761060;80;21959;-67
2021/06/05 11:38:23;;;;;;;3.92;3.47;;;;;;;27.55;38.16;99750.16;1752948;80;20999;-69
2021/06/05 11:41:06;;;;;;;3.87;3.05;;;;;;;27.62;38.06;99745.19;1775829;80;21025;-69
2021/06/05 11:43:44;;;;;;;6.20;2.90;;;;;;;27.67;36.51;99751.98;1768393;79;21045;-68
2021/06/05 11:46:35;;;;;;;5.65;2.75;;;;;;;27.72;38.11;99744.31;1768414;80;21057;-69
2021/06/05 11:49:04;;;;;;;5.45;3.35;;;;;;;27.75;38.49;99746.48;1761426;79;21207;-68
2021/06/05 11:51:35;;;;;;;3.58;2.77;;;;;;;27.77;38.31;99740.20;1764608;79;21013;-71